Terminal Aerodrome Forecast
Issued by NWS

Home | Current Version | Previous Version | Graphics & Text | Print | Product List | Glossary On
Versions: 1 2 3 4 5 6 7 8 9 10 11 12 13 14 15 16 17
807
FTUS43 KFGF 201140
TAFBJI
TAF
KBJI 201140Z 2012/2112 03005KT 2SM -SN OVC010
     FM201700 34007KT 5SM -SN OVC025
     FM202000 31012KT P6SM OVC025
     FM210000 29008KT P6SM OVC030
     FM210100 28008KT P6SM BKN050
     FM210500 26007KT P6SM SCT045
     FM210900 25006KT P6SM FEW150=

USA.gov is the U.S. government's official web portal to all federal, state and local government web resources and services.